createdAt,value
2022-10-19T00:00:12.414Z,3.50
2022-10-19T00:01:12.404Z,3.40
2022-10-19T00:02:12.496Z,4.10
2022-10-19T00:03:12.383Z,3.60
2022-10-19T00:04:12.374Z,3.50
2022-10-19T00:05:12.404Z,3.50
2022-10-19T00:06:12.353Z,3.70
2022-10-19T00:07:12.384Z,4.30
2022-10-19T00:08:12.333Z,4.10
2022-10-19T00:09:12.323Z,3.70
2022-10-19T00:10:12.313Z,4.40
2022-10-19T00:11:12.333Z,4.20
2022-10-19T00:12:12.296Z,4.60
2022-10-19T00:13:12.303Z,4.70
2022-10-19T00:14:12.263Z,4.50
2022-10-19T00:15:12.263Z,4.40
2022-10-19T00:16:12.244Z,4.60
2022-10-19T00:17:12.271Z,4.70
2022-10-19T00:18:12.237Z,5.10
2022-10-19T00:19:12.242Z,4.30
2022-10-19T00:20:12.243Z,4.20
2022-10-19T00:21:12.196Z,4.00
2022-10-19T00:22:13.929Z,4.20
2022-10-19T00:23:12.180Z,4.60
2022-10-19T00:24:12.172Z,4.20
2022-10-19T00:25:12.163Z,4.50
2022-10-19T00:26:12.162Z,4.60
2022-10-19T00:27:12.162Z,4.70
2022-10-19T00:28:12.112Z,4.80
2022-10-19T00:29:12.194Z,4.50
2022-10-19T00:30:12.107Z,4.10
2022-10-19T00:31:12.093Z,3.80
2022-10-19T00:32:12.076Z,4.00
2022-10-19T00:33:12.102Z,4.10
2022-10-19T00:34:12.061Z,4.10
2022-10-19T00:35:12.043Z,4.00
2022-10-19T00:36:12.042Z,4.40
2022-10-19T00:37:12.062Z,4.10
2022-10-19T00:38:12.011Z,4.30
2022-10-19T00:39:12.012Z,4.00
2022-10-19T00:40:11.992Z,3.90
2022-10-19T00:41:11.981Z,4.20
2022-10-19T00:42:11.971Z,4.40
2022-10-19T00:43:12.013Z,3.90
2022-10-19T00:44:11.946Z,4.10
2022-10-19T00:45:11.941Z,4.30
2022-10-19T00:46:11.921Z,3.60
2022-10-19T00:47:11.921Z,3.70
2022-10-19T00:48:11.912Z,3.60
2022-10-19T00:49:11.931Z,4.00
2022-10-19T00:50:11.901Z,4.50
2022-10-19T00:51:11.900Z,4.00
2022-10-19T00:52:11.892Z,4.20
2022-10-19T00:53:11.891Z,4.30
2022-10-19T00:54:11.850Z,4.80
2022-10-19T00:55:11.830Z,4.50
2022-10-19T00:56:11.825Z,4.50
2022-10-19T00:57:11.810Z,4.70
2022-10-19T00:58:13.502Z,4.40
2022-10-19T00:59:11.801Z,4.20
2022-10-19T01:00:11.779Z,4.40
2022-10-19T01:01:11.795Z,4.20
2022-10-19T01:02:11.759Z,5.00
2022-10-19T01:03:11.762Z,4.40
2022-10-19T01:04:11.780Z,4.90
2022-10-19T01:05:11.762Z,4.90
2022-10-19T01:06:11.742Z,5.10
2022-10-19T01:07:11.710Z,5.00
2022-10-19T01:08:11.690Z,5.30
2022-10-19T01:09:11.686Z,4.90
2022-10-19T01:10:11.672Z,5.00
2022-10-19T01:11:11.730Z,5.40
2022-10-19T01:12:11.651Z,5.70
2022-10-19T01:13:11.649Z,5.40
2022-10-19T01:14:11.629Z,5.70
2022-10-19T01:15:11.661Z,5.80
2022-10-19T01:16:11.616Z,6.10
2022-10-19T01:17:11.598Z,5.20
2022-10-19T01:18:11.589Z,6.20
2022-10-19T01:19:11.579Z,5.80
2022-10-19T01:20:11.588Z,5.40
2022-10-19T01:21:11.588Z,5.30
2022-10-19T01:22:11.549Z,4.50
2022-10-19T01:23:11.538Z,4.10
2022-10-19T01:24:11.528Z,4.30
2022-10-19T01:25:11.525Z,4.50
2022-10-19T01:26:11.500Z,4.40
2022-10-19T01:27:11.536Z,4.70
2022-10-19T01:28:11.478Z,5.60
2022-10-19T01:29:11.529Z,5.10
2022-10-19T01:30:11.457Z,5.60
2022-10-19T01:31:11.456Z,5.10
2022-10-19T01:32:12.508Z,5.80
2022-10-19T01:33:11.448Z,5.70
2022-10-19T01:34:11.408Z,5.30
2022-10-19T01:35:11.408Z,6.00
2022-10-19T01:36:11.396Z,5.70
2022-10-19T01:37:11.387Z,5.50
2022-10-19T01:38:11.417Z,5.60
2022-10-19T01:39:11.367Z,5.70
2022-10-19T01:40:11.366Z,5.30
2022-10-19T01:41:11.371Z,5.50
2022-10-19T01:42:11.335Z,5.20
2022-10-19T01:43:11.357Z,5.80
2022-10-19T01:44:11.309Z,5.30
2022-10-19T01:45:11.316Z,5.50
2022-10-19T01:46:11.286Z,5.80
2022-10-19T01:47:11.279Z,5.40
2022-10-19T01:48:11.258Z,5.60
2022-10-19T01:49:11.287Z,5.80
2022-10-19T01:50:11.244Z,5.30
2022-10-19T01:51:16.470Z,5.60
2022-10-19T01:52:11.227Z,5.70
2022-10-19T01:53:11.236Z,6.10
2022-10-19T01:54:11.206Z,5.70
2022-10-19T01:55:11.193Z,5.50
2022-10-19T01:56:11.187Z,5.30
2022-10-19T01:57:11.175Z,5.70
2022-10-19T01:58:11.214Z,6.10
2022-10-19T01:59:11.178Z,6.20
2022-10-19T02:00:11.143Z,6.40
2022-10-19T02:02:11.124Z,6.30
2022-10-19T02:03:11.116Z,6.20
2022-10-19T02:04:11.125Z,6.20
2022-10-19T02:05:11.084Z,6.20
2022-10-19T02:06:11.065Z,6.10
2022-10-19T02:07:11.074Z,5.70
2022-10-19T02:08:11.054Z,5.70
2022-10-19T02:09:11.045Z,5.30
2022-10-19T02:10:11.107Z,5.20
2022-10-19T02:11:11.044Z,5.10
2022-10-19T02:12:11.004Z,5.50
2022-10-19T02:13:11.005Z,5.20
2022-10-19T02:14:10.993Z,5.00
2022-10-19T02:15:11.017Z,4.60
2022-10-19T02:16:10.975Z,4.70
2022-10-19T02:17:10.955Z,5.30
2022-10-19T02:18:10.965Z,4.90
2022-10-19T02:19:10.974Z,4.60
2022-10-19T02:20:10.933Z,5.00
2022-10-19T02:21:10.974Z,4.90
2022-10-19T02:22:10.902Z,4.80
2022-10-19T02:23:10.894Z,4.90
2022-10-19T02:24:10.884Z,4.90
2022-10-19T02:25:10.893Z,4.90
2022-10-19T02:26:10.892Z,5.50
2022-10-19T02:27:10.854Z,5.30
2022-10-19T02:28:10.836Z,5.20
2022-10-19T02:29:10.834Z,5.50
2022-10-19T02:30:10.825Z,5.80
2022-10-19T02:31:10.843Z,6.20
2022-10-19T02:32:10.793Z,6.40
2022-10-19T02:33:10.790Z,5.80
2022-10-19T02:34:10.773Z,5.90
2022-10-19T02:35:10.771Z,5.90
2022-10-19T02:36:10.753Z,6.20
2022-10-19T02:37:10.783Z,6.50
2022-10-19T02:38:10.735Z,6.50
2022-10-19T02:39:10.766Z,6.20
2022-10-19T02:40:10.722Z,5.70
2022-10-19T02:41:10.703Z,6.20
2022-10-19T02:42:10.684Z,6.10
2022-10-19T02:43:10.692Z,5.40
2022-10-19T02:44:10.673Z,5.20
2022-10-19T02:45:10.693Z,5.60
2022-10-19T02:46:10.653Z,5.80
2022-10-19T02:47:10.654Z,5.00
2022-10-19T02:48:10.623Z,5.50
2022-10-19T02:49:10.626Z,5.30
2022-10-19T02:50:10.660Z,5.20
2022-10-19T02:51:10.605Z,5.40
2022-10-19T02:52:10.612Z,5.70
2022-10-19T02:53:10.583Z,5.70
2022-10-19T02:54:10.570Z,6.50
2022-10-19T02:55:10.599Z,6.10
2022-10-19T02:56:10.546Z,6.30
2022-10-19T02:57:10.532Z,6.60
2022-10-19T02:58:10.553Z,6.20
2022-10-19T02:59:10.511Z,6.90
2022-10-19T03:00:10.561Z,6.80
2022-10-19T03:01:10.551Z,7.20
2022-10-19T03:02:10.471Z,8.30
2022-10-19T03:03:10.471Z,8.80
2022-10-19T03:04:10.471Z,8.60
2022-10-19T03:05:10.452Z,8.90
2022-10-19T03:06:10.440Z,9.20
2022-10-19T03:07:10.459Z,9.60
2022-10-19T03:08:10.415Z,9.50
2022-10-19T03:09:10.401Z,10.40
2022-10-19T03:10:10.391Z,10.10
2022-10-19T03:11:10.447Z,22.00
2022-10-19T03:12:10.378Z,86.50
2022-10-19T03:13:10.371Z,23.40
2022-10-19T03:14:10.350Z,17.30
2022-10-19T03:15:10.350Z,13.30
2022-10-19T03:16:10.328Z,12.00
2022-10-19T03:17:10.343Z,11.40
2022-10-19T03:18:10.300Z,10.00
2022-10-19T03:19:10.301Z,9.20
2022-10-19T03:20:10.279Z,9.90
2022-10-19T03:21:10.287Z,9.20
2022-10-19T03:22:10.400Z,9.10
2022-10-19T03:23:10.258Z,9.30
2022-10-19T03:24:10.241Z,8.90
2022-10-19T03:25:10.229Z,8.80
2022-10-19T03:26:12.216Z,9.10
2022-10-19T03:27:10.211Z,8.60
2022-10-19T03:28:10.228Z,9.10
2022-10-19T03:29:10.229Z,8.70
2022-10-19T03:30:10.187Z,8.40
2022-10-19T03:31:10.182Z,8.40
2022-10-19T03:32:10.199Z,8.60
2022-10-19T03:33:10.175Z,8.50
2022-10-19T03:34:10.139Z,8.40
2022-10-19T03:35:10.196Z,8.50
2022-10-19T03:36:10.133Z,8.20
2022-10-19T03:37:10.141Z,8.40
2022-10-19T03:38:10.098Z,8.80
2022-10-19T03:39:10.081Z,9.10
2022-10-19T03:40:10.068Z,9.30
2022-10-19T03:41:10.065Z,8.80
2022-10-19T03:42:10.063Z,8.30
2022-10-19T03:43:10.078Z,8.50
2022-10-19T03:44:10.027Z,8.60
2022-10-19T03:45:10.020Z,8.40
2022-10-19T03:46:10.028Z,8.10
2022-10-19T03:47:10.029Z,8.00
2022-10-19T03:48:09.979Z,7.90
2022-10-19T03:49:09.978Z,7.50
2022-10-19T03:50:09.989Z,8.70
2022-10-19T03:51:09.969Z,8.70
2022-10-19T03:52:09.972Z,8.60
2022-10-19T03:53:09.940Z,8.70
2022-10-19T03:54:09.987Z,7.90
2022-10-19T03:55:09.920Z,8.20
2022-10-19T03:56:09.909Z,8.20
2022-10-19T03:57:09.896Z,8.40
2022-10-19T03:58:09.898Z,7.90
2022-10-19T03:59:09.867Z,7.80
2022-10-19T04:00:09.858Z,8.20
2022-10-19T04:01:09.927Z,8.10
2022-10-19T04:03:19.854Z,7.60
2022-10-19T04:04:19.828Z,7.60
2022-10-19T04:05:19.807Z,8.80
2022-10-19T04:06:22.024Z,8.10
2022-10-19T04:07:19.785Z,8.10
2022-10-19T04:08:19.782Z,8.30
2022-10-19T04:09:19.787Z,8.10
2022-10-19T04:10:19.753Z,8.60
2022-10-19T04:11:19.734Z,8.50
2022-10-19T04:12:19.735Z,9.50
2022-10-19T04:13:19.714Z,14.30
2022-10-19T04:14:31.557Z,11.20
2022-10-19T04:15:22.414Z,9.30
2022-10-19T04:16:19.684Z,9.70
2022-10-19T04:17:19.678Z,11.20
2022-10-19T04:18:19.672Z,13.80
2022-10-19T04:19:19.655Z,19.80
2022-10-19T04:20:19.643Z,50.80
2022-10-19T04:22:30.498Z,31.80
2022-10-19T04:23:30.485Z,29.20
2022-10-19T04:24:30.469Z,12.90
2022-10-19T04:25:30.464Z,16.90
2022-10-19T04:26:30.450Z,15.40
2022-10-19T04:27:30.531Z,16.80
2022-10-19T04:28:30.529Z,13.30
2022-10-19T04:29:30.880Z,12.20
2022-10-19T04:30:30.407Z,17.00
2022-10-19T04:31:30.396Z,20.60
2022-10-19T04:32:30.397Z,19.40
2022-10-19T04:33:30.375Z,22.00
2022-10-19T04:34:30.356Z,16.70
2022-10-19T04:35:38.025Z,12.50
2022-10-19T04:36:30.335Z,14.00
2022-10-19T04:37:30.400Z,16.90
2022-10-19T04:38:30.315Z,17.80
2022-10-19T04:39:30.308Z,17.80
2022-10-19T04:40:30.307Z,13.30
2022-10-19T04:41:30.316Z,17.10
2022-10-19T04:42:30.277Z,17.40
2022-10-19T04:43:30.274Z,14.30
2022-10-19T04:44:30.254Z,19.60
2022-10-19T04:45:30.246Z,32.00
2022-10-19T04:46:30.236Z,31.60
2022-10-19T04:47:30.362Z,20.30
2022-10-19T04:48:30.216Z,19.80
2022-10-19T04:49:30.199Z,34.00
2022-10-19T04:50:30.187Z,38.60
2022-10-19T04:51:30.176Z,36.20
2022-10-19T04:52:30.165Z,20.10
2022-10-19T04:53:30.192Z,14.50
2022-10-19T04:54:30.146Z,17.30
2022-10-19T04:55:30.127Z,12.40
2022-10-19T04:56:30.123Z,11.50
2022-10-19T04:57:30.105Z,9.50
2022-10-19T04:58:30.104Z,10.10
2022-10-19T04:59:30.131Z,9.40
2022-10-19T05:00:30.090Z,10.20
2022-10-19T05:01:30.071Z,9.10
2022-10-19T05:02:30.062Z,9.70
2022-10-19T05:03:30.054Z,9.50
2022-10-19T05:04:30.045Z,10.60
2022-10-19T05:05:30.058Z,10.40
2022-10-19T05:06:30.067Z,9.50
2022-10-19T05:07:30.002Z,9.50
2022-10-19T05:08:29.994Z,8.70
2022-10-19T05:09:29.976Z,9.30
2022-10-19T05:10:30.123Z,8.70
2022-10-19T05:11:30.021Z,9.10
2022-10-19T05:12:29.953Z,9.60
2022-10-19T05:13:29.950Z,10.30
2022-10-19T05:14:29.938Z,9.80
2022-10-19T05:15:29.933Z,12.80
2022-10-19T05:16:29.910Z,10.20
2022-10-19T05:17:29.933Z,13.00
2022-10-19T05:18:29.913Z,12.30
2022-10-19T05:19:29.873Z,14.30
2022-10-19T05:20:29.863Z,15.00
2022-10-19T05:21:29.855Z,10.50
2022-10-19T05:22:29.880Z,11.40
2022-10-19T05:23:29.846Z,9.90
2022-10-19T05:24:29.822Z,10.60
2022-10-19T05:25:29.802Z,10.80
2022-10-19T05:26:29.846Z,11.10
2022-10-19T05:27:29.794Z,10.80
2022-10-19T05:28:29.846Z,10.30
2022-10-19T05:29:29.832Z,9.70
2022-10-19T05:30:29.762Z,10.20
2022-10-19T05:31:29.734Z,9.80
2022-10-19T05:32:29.744Z,10.60
2022-10-19T05:33:29.870Z,11.00
2022-10-19T05:34:29.722Z,11.50
2022-10-19T05:35:29.772Z,10.80
2022-10-19T05:36:29.691Z,11.40
2022-10-19T05:37:29.673Z,11.60
2022-10-19T05:38:29.675Z,12.20
2022-10-19T05:39:29.658Z,12.40
2022-10-19T05:40:29.651Z,14.20
2022-10-19T05:41:29.703Z,14.80
2022-10-19T05:42:29.637Z,16.10
2022-10-19T05:43:29.617Z,18.40
2022-10-19T05:44:29.682Z,17.80
2022-10-19T05:45:29.665Z,13.70
2022-10-19T05:46:29.632Z,15.80
2022-10-19T05:47:31.073Z,19.80
2022-10-19T05:48:29.572Z,24.20
2022-10-19T05:49:29.552Z,28.00
2022-10-19T05:50:37.580Z,55.20
2022-10-19T05:51:29.521Z,48.40
2022-10-19T05:52:29.511Z,32.70
2022-10-19T05:53:29.547Z,28.60
2022-10-19T05:54:29.531Z,22.10
2022-10-19T05:55:29.521Z,23.60
2022-10-19T05:56:29.472Z,18.00
2022-10-19T05:57:29.461Z,16.60
2022-10-19T05:58:29.451Z,16.10
2022-10-19T05:59:29.449Z,15.40
2022-10-19T06:00:29.429Z,17.40
2022-10-19T06:01:29.544Z,16.70
2022-10-19T06:02:29.410Z,15.50
2022-10-19T06:03:29.392Z,15.90
2022-10-19T06:04:30.079Z,15.30
2022-10-19T06:05:29.400Z,15.40
2022-10-19T06:06:29.411Z,14.70
2022-10-19T06:07:29.360Z,15.10
2022-10-19T06:08:29.371Z,15.60
2022-10-19T06:09:29.360Z,14.90
2022-10-19T06:10:29.329Z,14.80
2022-10-19T06:11:29.316Z,15.00
2022-10-19T06:12:29.309Z,14.50
2022-10-19T06:13:29.289Z,14.90
2022-10-19T06:14:30.431Z,15.10
2022-10-19T06:15:29.268Z,14.50
2022-10-19T06:16:29.289Z,16.00
2022-10-19T06:17:29.270Z,16.90
2022-10-19T06:18:29.250Z,18.30
2022-10-19T06:19:29.221Z,23.60
2022-10-19T06:20:29.269Z,24.90
2022-10-19T06:21:29.200Z,18.90
2022-10-19T06:22:29.202Z,19.30
2022-10-19T06:23:29.258Z,15.60
2022-10-19T06:24:29.171Z,15.50
2022-10-19T06:25:29.167Z,15.00
2022-10-19T06:26:29.221Z,16.70
2022-10-19T06:27:29.195Z,16.30
2022-10-19T06:28:29.137Z,17.20
2022-10-19T06:29:29.171Z,27.20
2022-10-19T06:30:29.222Z,16.80
2022-10-19T06:31:29.174Z,18.90
2022-10-19T06:32:29.110Z,23.20
2022-10-19T06:33:30.081Z,36.00
2022-10-19T06:34:29.206Z,34.00
2022-10-19T06:35:29.048Z,29.70
2022-10-19T06:36:29.077Z,19.70
2022-10-19T06:37:29.028Z,17.30
2022-10-19T06:38:29.058Z,18.70
2022-10-19T06:39:29.083Z,14.90
2022-10-19T06:40:29.159Z,21.90
2022-10-19T06:41:28.986Z,36.90
2022-10-19T06:42:28.989Z,31.20
2022-10-19T06:43:28.998Z,27.50
2022-10-19T06:44:28.967Z,24.20
2022-10-19T06:45:32.287Z,28.50
2022-10-19T06:46:29.987Z,27.20
2022-10-19T06:47:28.991Z,29.90
2022-10-19T06:48:28.941Z,29.10
2022-10-19T06:49:28.928Z,22.60
2022-10-19T06:50:28.897Z,20.90
2022-10-19T06:51:28.949Z,19.00
2022-10-19T06:52:28.870Z,18.70
2022-10-19T06:53:28.866Z,21.30
2022-10-19T06:54:28.898Z,19.60
2022-10-19T06:55:28.944Z,24.80
2022-10-19T06:56:28.837Z,24.60
2022-10-19T06:57:28.856Z,28.50
2022-10-19T06:58:28.806Z,28.70
2022-10-19T06:59:28.822Z,29.60
2022-10-19T07:00:29.018Z,25.30
2022-10-19T07:01:28.898Z,31.40
2022-10-19T07:02:28.769Z,43.20
2022-10-19T07:03:28.860Z,26.90
2022-10-19T07:04:28.766Z,24.40
2022-10-19T07:05:28.727Z,33.80
2022-10-19T07:06:28.774Z,39.20
2022-10-19T07:07:28.742Z,36.10
2022-10-19T07:08:28.695Z,24.70
2022-10-19T07:09:28.685Z,27.40
2022-10-19T07:10:28.709Z,26.70
2022-10-19T07:11:28.685Z,30.70
2022-10-19T07:12:28.711Z,25.80
2022-10-19T07:13:28.639Z,26.30
2022-10-19T07:14:28.635Z,26.90
2022-10-19T07:15:28.665Z,40.10
2022-10-19T07:16:39.348Z,35.60
2022-10-19T07:17:30.143Z,52.90
2022-10-19T07:18:28.609Z,109.60
2022-10-19T07:19:28.586Z,74.00
2022-10-19T07:20:28.615Z,28.90
2022-10-19T07:21:28.574Z,29.30
2022-10-19T07:22:28.574Z,26.80
2022-10-19T07:23:28.577Z,42.90
2022-10-19T07:24:28.535Z,28.20
2022-10-19T07:25:28.511Z,31.20
2022-10-19T07:26:28.515Z,31.60
2022-10-19T07:27:28.494Z,45.00
2022-10-19T07:28:28.484Z,32.50
2022-10-19T07:29:28.696Z,38.30
2022-10-19T07:30:28.463Z,34.20
2022-10-19T07:31:28.495Z,33.10
2022-10-19T07:32:28.444Z,31.10
2022-10-19T07:33:28.426Z,30.40
2022-10-19T07:34:29.174Z,32.70
2022-10-19T07:35:28.425Z,31.80
2022-10-19T07:36:28.404Z,34.30
2022-10-19T07:37:28.434Z,33.20
2022-10-19T07:38:28.383Z,32.90
2022-10-19T07:39:28.403Z,33.10
2022-10-19T07:40:28.355Z,33.70
2022-10-19T07:41:28.343Z,33.30
2022-10-19T07:42:28.336Z,34.00
2022-10-19T07:43:36.158Z,35.00
2022-10-19T07:44:28.307Z,34.00
2022-10-19T07:45:28.338Z,32.70
2022-10-19T07:46:28.353Z,32.50
2022-10-19T07:47:28.279Z,31.50
2022-10-19T07:48:28.350Z,31.10
2022-10-19T07:49:28.294Z,28.50
2022-10-19T07:50:28.257Z,28.80
2022-10-19T07:52:29.901Z,30.00
2022-10-19T07:53:28.214Z,27.30
2022-10-19T07:54:28.203Z,27.60
2022-10-19T07:55:28.213Z,28.10
2022-10-19T07:56:28.194Z,26.60
2022-10-19T07:57:28.204Z,23.30
2022-10-19T07:58:28.162Z,24.00
2022-10-19T07:59:28.161Z,21.10
2022-10-19T08:00:28.195Z,25.40
2022-10-19T08:01:28.243Z,22.20
2022-10-19T08:02:34.991Z,21.60
2022-10-19T08:04:14.258Z,19.90
2022-10-19T08:04:56.100Z,20.50
2022-10-19T08:05:29.162Z,23.00
2022-10-19T08:06:28.073Z,20.90
2022-10-19T08:07:28.069Z,19.10
2022-10-19T08:08:28.113Z,17.40
2022-10-19T08:09:51.608Z,18.10
2022-10-19T08:10:29.637Z,17.80
2022-10-19T08:11:28.035Z,17.80
2022-10-19T08:12:28.001Z,17.60
2022-10-19T08:13:27.990Z,17.00
2022-10-19T08:14:28.044Z,17.70
2022-10-19T08:15:27.988Z,16.50
2022-10-19T08:16:27.971Z,17.80
2022-10-19T08:17:27.989Z,17.20
2022-10-19T08:18:27.999Z,17.40
2022-10-19T08:19:27.932Z,16.40
2022-10-19T08:20:27.920Z,16.50
2022-10-19T08:21:27.964Z,15.70
2022-10-19T08:22:27.971Z,17.10
2022-10-19T08:23:30.165Z,16.50
2022-10-19T08:24:27.911Z,16.50
2022-10-19T08:25:27.903Z,16.60
2022-10-19T08:26:27.881Z,28.50
2022-10-19T08:27:27.949Z,31.70
2022-10-19T08:28:27.838Z,22.20
2022-10-19T08:29:30.644Z,20.10
2022-10-19T08:30:29.462Z,22.50
2022-10-19T08:31:27.881Z,20.60
2022-10-19T08:32:27.960Z,20.20
2022-10-19T08:33:27.780Z,20.90
2022-10-19T08:34:27.858Z,21.00
2022-10-19T08:35:27.759Z,19.80
2022-10-19T08:36:27.749Z,20.20
2022-10-19T08:37:44.333Z,20.70
2022-10-19T08:38:28.750Z,19.20
2022-10-19T08:39:27.738Z,21.30
2022-10-19T08:40:27.731Z,20.50
2022-10-19T08:41:27.698Z,19.70
2022-10-19T08:43:38.563Z,19.60
2022-10-19T08:44:38.533Z,19.90
2022-10-19T08:45:38.607Z,19.30
2022-10-19T08:46:38.511Z,19.90
2022-10-19T08:47:38.670Z,19.60
2022-10-19T08:48:38.554Z,20.00
2022-10-19T08:49:38.530Z,20.30
2022-10-19T08:50:38.471Z,19.50
2022-10-19T08:51:38.480Z,19.80
2022-10-19T08:52:38.453Z,18.90
2022-10-19T08:53:38.461Z,18.60
2022-10-19T08:54:38.486Z,19.30
2022-10-19T08:55:38.451Z,19.30
2022-10-19T08:56:50.649Z,18.80
2022-10-19T08:57:39.390Z,17.60
2022-10-19T08:58:38.380Z,17.80
2022-10-19T08:59:38.388Z,17.30
2022-10-19T09:00:41.392Z,17.30
2022-10-19T09:01:41.938Z,17.20
2022-10-19T09:02:38.338Z,17.90
2022-10-19T09:04:39.320Z,17.00
2022-10-19T09:05:38.313Z,16.90
2022-10-19T09:06:38.299Z,17.90
2022-10-19T09:07:39.989Z,18.40
2022-10-19T09:08:38.325Z,17.30
2022-10-19T09:09:38.293Z,17.90
2022-10-19T09:10:38.267Z,17.30
2022-10-19T09:11:38.301Z,20.90
2022-10-19T09:12:38.235Z,20.90
2022-10-19T09:13:47.062Z,19.70
2022-10-19T09:14:39.210Z,21.10
2022-10-19T09:15:38.200Z,24.50
2022-10-19T09:16:38.188Z,19.20
2022-10-19T09:17:41.239Z,17.40
2022-10-19T09:18:38.208Z,16.70
2022-10-19T09:19:38.159Z,15.60
2022-10-19T09:20:38.158Z,16.00
2022-10-19T09:21:46.054Z,16.40
2022-10-19T09:22:39.130Z,14.50
2022-10-19T09:23:38.118Z,13.90
2022-10-19T09:24:39.839Z,13.60
2022-10-19T09:25:38.098Z,12.40
2022-10-19T09:26:38.088Z,12.60
2022-10-19T09:27:38.099Z,12.80
2022-10-19T09:28:40.052Z,11.40
2022-10-19T09:29:38.061Z,13.10
2022-10-19T09:30:38.078Z,13.90
2022-10-19T09:31:40.509Z,11.50
2022-10-19T09:32:38.461Z,11.60
2022-10-19T09:33:38.046Z,12.20
2022-10-19T09:34:37.998Z,11.10
2022-10-19T09:35:37.988Z,11.40
2022-10-19T09:36:49.992Z,10.90
2022-10-19T09:37:38.969Z,11.10
2022-10-19T09:38:37.989Z,10.50
2022-10-19T09:39:38.015Z,11.10
2022-10-19T09:40:37.927Z,10.20
2022-10-19T09:41:37.949Z,10.90
2022-10-19T09:42:38.249Z,10.80
2022-10-19T09:43:37.898Z,10.40
2022-10-19T09:44:37.928Z,11.10
2022-10-19T09:45:37.890Z,11.00
2022-10-19T09:46:38.940Z,10.70
2022-10-19T09:47:38.194Z,11.10
2022-10-19T09:48:37.838Z,10.70
2022-10-19T09:49:37.839Z,9.80
2022-10-19T09:50:37.867Z,10.60
2022-10-19T09:51:37.817Z,10.30
2022-10-19T09:52:37.799Z,10.20
2022-10-19T09:53:37.801Z,8.80
2022-10-19T09:54:37.785Z,8.90
2022-10-19T09:55:37.800Z,8.30
2022-10-19T09:56:37.817Z,7.40
2022-10-19T09:57:37.757Z,7.30
2022-10-19T09:58:37.767Z,8.20
2022-10-19T09:59:37.767Z,7.10
2022-10-19T10:00:40.666Z,5.90
2022-10-19T10:01:40.206Z,6.60
2022-10-19T10:03:52.493Z,15.30
2022-10-19T10:04:50.201Z,14.80
2022-10-19T10:05:49.212Z,8.90
2022-10-19T10:06:49.184Z,7.20
2022-10-19T10:07:49.181Z,11.60
2022-10-19T10:08:49.228Z,9.90
2022-10-19T10:09:49.171Z,8.00
2022-10-19T10:10:49.211Z,6.30
2022-10-19T10:11:49.182Z,6.50
2022-10-19T10:12:49.120Z,6.50
2022-10-19T10:13:49.110Z,5.90
2022-10-19T10:14:49.092Z,6.20
2022-10-19T10:15:49.151Z,5.10
2022-10-19T10:16:49.072Z,4.50
2022-10-19T10:17:49.071Z,4.80
2022-10-19T10:18:49.039Z,4.50
2022-10-19T10:19:49.202Z,4.30
2022-10-19T10:20:49.077Z,4.50
2022-10-19T10:21:49.691Z,4.60
2022-10-19T10:22:49.014Z,4.50
2022-10-19T10:23:48.991Z,4.40
2022-10-19T10:24:49.013Z,4.60
2022-10-19T10:25:48.978Z,4.70
2022-10-19T10:26:48.953Z,4.90
2022-10-19T10:27:48.990Z,4.80
2022-10-19T10:28:48.937Z,4.60
2022-10-19T10:29:48.977Z,4.80
2022-10-19T10:30:48.910Z,4.90
2022-10-19T10:31:50.629Z,6.00
2022-10-19T10:32:48.944Z,5.90
2022-10-19T10:33:48.952Z,5.50
2022-10-19T10:34:52.849Z,6.00
2022-10-19T10:35:49.870Z,5.60
2022-10-19T10:36:48.890Z,6.30
2022-10-19T10:37:48.860Z,9.70
2022-10-19T10:38:48.925Z,7.10
2022-10-19T10:39:48.819Z,6.30
2022-10-19T10:40:48.819Z,6.30
2022-10-19T10:41:48.802Z,7.00
2022-10-19T10:42:53.010Z,6.90
2022-10-19T10:43:48.797Z,7.90
2022-10-19T10:44:48.769Z,6.90
2022-10-19T10:45:48.753Z,7.40
2022-10-19T10:46:48.741Z,7.00
2022-10-19T10:47:48.729Z,6.20
2022-10-19T10:48:50.370Z,6.20
2022-10-19T10:49:48.711Z,6.10
2022-10-19T10:50:48.701Z,5.20
2022-10-19T10:51:50.726Z,5.10
2022-10-19T10:52:48.699Z,5.00
2022-10-19T10:53:48.699Z,5.00
2022-10-19T10:54:48.659Z,5.10
2022-10-19T10:55:48.640Z,5.10
2022-10-19T10:56:48.639Z,5.20
2022-10-19T10:57:48.619Z,5.50
2022-10-19T10:58:48.646Z,5.70
2022-10-19T10:59:48.630Z,5.40
2022-10-19T11:00:48.590Z,5.40
2022-10-19T11:01:48.624Z,5.00
2022-10-19T11:02:48.570Z,4.90
2022-10-19T11:03:48.549Z,4.40
2022-10-19T11:04:51.432Z,4.00
2022-10-19T11:05:48.571Z,3.90
2022-10-19T11:06:48.520Z,3.80
2022-10-19T11:07:48.510Z,6.60
2022-10-19T11:08:48.597Z,4.90
2022-10-19T11:09:48.489Z,4.30
2022-10-19T11:10:48.481Z,3.70
2022-10-19T11:11:48.471Z,3.60
2022-10-19T11:12:48.459Z,3.50
2022-10-19T11:13:48.487Z,3.20
2022-10-19T11:14:48.438Z,3.70
2022-10-19T11:15:48.421Z,3.20
2022-10-19T11:16:48.422Z,2.90
2022-10-19T11:17:48.405Z,3.10
2022-10-19T11:18:48.396Z,3.20
2022-10-19T11:19:48.421Z,3.20
2022-10-19T11:20:48.378Z,4.00
2022-10-19T11:21:48.359Z,3.30
2022-10-19T11:22:48.397Z,2.90
2022-10-19T11:23:48.338Z,2.90
2022-10-19T11:24:48.782Z,2.60
2022-10-19T11:25:48.329Z,2.80
2022-10-19T11:26:48.308Z,3.00
2022-10-19T11:27:48.308Z,3.20
2022-10-19T11:28:51.098Z,2.90
2022-10-19T11:29:48.268Z,2.90
2022-10-19T11:30:50.552Z,2.90
2022-10-19T11:31:48.318Z,2.80
2022-10-19T11:32:48.248Z,4.30
2022-10-19T11:33:48.231Z,3.60
2022-10-19T11:34:48.222Z,3.40
2022-10-19T11:35:48.207Z,3.00
2022-10-19T11:36:48.208Z,3.40
2022-10-19T11:38:00.471Z,2.50
2022-10-19T11:38:51.389Z,2.50
2022-10-19T11:39:48.159Z,2.50
2022-10-19T11:41:06.145Z,2.30
2022-10-19T11:41:49.141Z,2.80
2022-10-19T11:42:48.223Z,2.90
2022-10-19T11:43:48.119Z,2.90
2022-10-19T11:44:48.109Z,2.50
2022-10-19T11:45:48.099Z,3.30
2022-10-19T11:46:48.089Z,2.90
2022-10-19T11:47:48.078Z,2.90
2022-10-19T11:48:51.609Z,2.70
2022-10-19T11:49:48.109Z,2.90
2022-10-19T11:50:53.830Z,2.70
2022-10-19T11:51:49.029Z,3.00
2022-10-19T11:52:48.029Z,2.80
2022-10-19T11:53:48.009Z,3.10
2022-10-19T11:54:48.003Z,2.90
2022-10-19T11:55:48.029Z,2.90
2022-10-19T11:57:02.483Z,3.00
2022-10-19T11:57:48.959Z,3.00
2022-10-19T11:58:47.968Z,3.20
2022-10-19T11:59:47.937Z,3.40
2022-10-19T12:00:47.938Z,3.20
2022-10-19T12:01:47.983Z,3.00
2022-10-19T12:02:47.909Z,2.80
2022-10-19T12:03:47.917Z,3.10
2022-10-19T12:04:47.901Z,2.90
2022-10-19T12:05:47.886Z,2.90
2022-10-19T12:06:47.881Z,3.30
2022-10-19T12:07:47.868Z,2.90
2022-10-19T12:08:49.173Z,2.90
2022-10-19T12:09:51.378Z,3.10
2022-10-19T12:10:47.829Z,3.10
2022-10-19T12:11:47.819Z,3.00
2022-10-19T12:12:47.810Z,3.20
2022-10-19T12:13:47.799Z,2.90
2022-10-19T12:14:47.789Z,2.50
2022-10-19T12:15:47.809Z,2.60
2022-10-19T12:16:47.800Z,2.60
2022-10-19T12:17:47.789Z,2.90
2022-10-19T12:18:47.749Z,3.00
2022-10-19T12:19:47.730Z,2.70
2022-10-19T12:20:47.749Z,3.40
2022-10-19T12:21:47.749Z,3.10
2022-10-19T12:22:47.701Z,3.30
2022-10-19T12:23:47.689Z,3.10
2022-10-19T12:24:47.679Z,3.10
2022-10-19T12:25:47.674Z,3.10
2022-10-19T12:26:47.742Z,3.10
2022-10-19T12:27:47.763Z,3.10
2022-10-19T12:28:47.659Z,3.00
2022-10-19T12:29:47.619Z,3.20
2022-10-19T12:30:47.660Z,3.50
2022-10-19T12:31:47.607Z,3.30
2022-10-19T12:32:51.996Z,3.20
2022-10-19T12:33:48.588Z,3.30
2022-10-19T12:34:47.572Z,3.00
2022-10-19T12:35:47.559Z,2.90
2022-10-19T12:36:47.602Z,3.10
2022-10-19T12:37:47.537Z,3.40
2022-10-19T12:38:49.470Z,3.30
2022-10-19T12:39:47.510Z,3.10
2022-10-19T12:40:47.510Z,2.70
2022-10-19T12:41:47.490Z,2.60
2022-10-19T12:42:47.529Z,2.90
2022-10-19T12:43:47.471Z,2.80
2022-10-19T12:44:47.469Z,3.00
2022-10-19T12:45:47.448Z,2.90
2022-10-19T12:46:49.947Z,2.90
2022-10-19T12:47:48.470Z,3.00
2022-10-19T12:48:47.419Z,3.30
2022-10-19T12:49:47.410Z,2.80
2022-10-19T12:50:47.428Z,2.80
2022-10-19T12:51:47.381Z,3.00
2022-10-19T12:52:47.378Z,2.80
2022-10-19T12:53:47.359Z,2.90
2022-10-19T12:54:47.359Z,2.50
2022-10-19T12:55:47.339Z,2.90
2022-10-19T12:56:47.361Z,3.20
2022-10-19T12:57:47.320Z,2.80
2022-10-19T12:58:48.129Z,2.80
2022-10-19T12:59:47.300Z,3.20
2022-10-19T13:00:47.886Z,3.00
2022-10-19T13:01:47.279Z,4.00
2022-10-19T13:02:47.271Z,3.10
2022-10-19T13:03:51.219Z,3.30
2022-10-19T13:04:47.249Z,3.00
2022-10-19T13:05:47.230Z,2.60
2022-10-19T13:06:47.346Z,2.90
2022-10-19T13:07:47.236Z,2.90
2022-10-19T13:08:47.246Z,2.80
2022-10-19T13:09:47.190Z,2.80
2022-10-19T13:10:47.230Z,3.20
2022-10-19T13:11:47.166Z,2.80
2022-10-19T13:12:47.166Z,2.80
2022-10-19T13:13:47.181Z,2.60
2022-10-19T13:14:47.140Z,2.70